Time;durP1;ratioP1;P1;durP2;ratioP2;P2;SDS_P1;SDS_P2;PMS_P1;PMS_P2;Temp;Humidity;BMP_temperature;BMP_pressure;BME280_temperature;BME280_humidity;BME280_pressure;Samples;Min_cycle;Max_cycle;Signal;HPM_P1;HPM_P2
2023/05/20 00:01:32;;;;;;;11.68;5.63;;;11.90;99.90;;;;;;5066468;28;20050;-54
2023/05/20 00:03:58;;;;;;;11.60;5.43;;;11.90;99.90;;;;;;5065501;28;20048;-54
2023/05/20 00:06:23;;;;;;;11.60;5.65;;;11.80;99.90;;;;;;5065176;28;20095;-55
2023/05/20 00:08:49;;;;;;;11.32;5.07;;;11.90;99.90;;;;;;5065310;28;20060;-53
2023/05/20 00:11:15;;;;;;;9.73;5.00;;;11.90;99.90;;;;;;5065858;28;20072;-54
2023/05/20 00:13:40;;;;;;;12.20;5.72;;;11.90;99.90;;;;;;5065464;28;20572;-54
2023/05/20 00:16:06;;;;;;;9.68;5.50;;;11.80;99.90;;;;;;5065176;28;20403;-56
2023/05/20 00:18:31;;;;;;;11.98;5.70;;;11.80;99.90;;;;;;5065828;28;20090;-54
2023/05/20 00:20:57;;;;;;;13.40;5.38;;;11.80;99.90;;;;;;5064433;28;20048;-53
2023/05/20 00:23:23;;;;;;;11.05;5.60;;;11.80;99.90;;;;;;5065575;28;20059;-55
2023/05/20 00:25:49;;;;;;;9.50;5.13;;;11.70;99.90;;;;;;5065657;28;20036;-54
2023/05/20 00:28:15;;;;;;;11.85;5.60;;;11.90;99.90;;;;;;5065631;28;20036;-55
2023/05/20 00:30:41;;;;;;;9.40;5.35;;;11.70;99.90;;;;;;5065717;28;20120;-54
2023/05/20 00:33:07;;;;;;;8.43;5.05;;;11.70;99.90;;;;;;5047800;28;20287;-54
2023/05/20 00:35:32;;;;;;;11.30;5.05;;;11.70;99.90;;;;;;5047877;28;20063;-55
2023/05/20 00:37:58;;;;;;;11.20;4.88;;;11.60;99.90;;;;;;5064351;28;20071;-55
2023/05/20 00:40:24;;;;;;;8.90;4.85;;;11.70;99.90;;;;;;5065613;28;20389;-55
2023/05/20 00:42:50;;;;;;;14.60;5.53;;;11.60;99.90;;;;;;5047187;28;20048;-55
2023/05/20 00:45:16;;;;;;;8.50;5.15;;;11.60;99.90;;;;;;5065070;28;20063;-55
2023/05/20 00:47:42;;;;;;;7.00;4.75;;;11.60;99.90;;;;;;5065324;28;20037;-55
2023/05/20 00:50:09;;;;;;;8.45;4.90;;;11.60;99.90;;;;;;5065641;28;20037;-55
2023/05/20 00:52:36;;;;;;;13.38;5.03;;;11.60;99.90;;;;;;5064434;28;20089;-55
2023/05/20 00:55:02;;;;;;;7.95;4.95;;;11.60;99.90;;;;;;5064730;28;20446;-55
2023/05/20 00:57:28;;;;;;;9.32;4.53;;;11.60;99.90;;;;;;5065321;28;20124;-55
2023/05/20 00:59:54;;;;;;;10.70;4.95;;;11.60;99.90;;;;;;5065316;28;20048;-55
2023/05/20 01:02:20;;;;;;;10.60;5.03;;;11.60;99.90;;;;;;5064738;28;20097;-55
2023/05/20 01:04:46;;;;;;;9.93;4.88;;;11.60;99.90;;;;;;5065311;28;20291;-55
2023/05/20 01:07:14;;;;;;;8.38;4.82;;;11.60;99.90;;;;;;5064384;28;20041;-55
2023/05/20 01:09:40;;;;;;;9.68;4.82;;;11.60;99.90;;;;;;5064597;28;20304;-55
2023/05/20 01:12:19;;;;;;;9.38;4.40;;;11.70;99.90;;;;;;5065569;28;20060;-56
2023/05/20 01:15:02;;;;;;;8.48;4.22;;;11.60;99.90;;;;;;5053716;28;20081;-56
2023/05/20 01:17:31;;;;;;;7.75;4.70;;;11.60;99.90;;;;;;5045311;28;20045;-55
2023/05/20 01:19:58;;;;;;;7.38;4.28;;;11.60;99.90;;;;;;5045236;28;20056;-55
2023/05/20 01:22:28;;;;;;;8.43;4.82;;;11.60;99.90;;;;;;5044084;28;20364;-54
2023/05/20 01:24:54;;;;;;;10.48;4.80;;;11.60;99.90;;;;;;5044681;28;20094;-55
2023/05/20 01:27:21;;;;;;;9.68;4.53;;;11.70;99.90;;;;;;5045084;28;20489;-54
2023/05/20 01:29:51;;;;;;;9.93;4.60;;;11.70;99.90;;;;;;5048957;28;20488;-55
2023/05/20 01:32:19;;;;;;;7.95;4.40;;;11.70;99.90;;;;;;5048748;28;20438;-54
2023/05/20 01:34:51;;;;;;;10.00;4.35;;;11.70;99.90;;;;;;5048729;28;20135;-54
2023/05/20 01:37:18;;;;;;;10.98;4.32;;;11.70;99.90;;;;;;5047546;28;20049;-55
2023/05/20 01:39:45;;;;;;;9.65;4.55;;;11.70;99.90;;;;;;5048698;28;20045;-56
2023/05/20 01:42:12;;;;;;;8.23;4.28;;;11.70;99.90;;;;;;5048799;28;20044;-55
2023/05/20 01:44:38;;;;;;;8.32;4.45;;;11.70;99.90;;;;;;5048478;28;20041;-54
2023/05/20 01:47:04;;;;;;;9.23;4.28;;;11.70;99.90;;;;;;5048749;28;20072;-55
2023/05/20 01:49:30;;;;;;;7.50;4.18;;;11.70;99.90;;;;;;5048604;28;20139;-55
2023/05/20 01:51:56;;;;;;;8.35;5.00;;;11.70;99.90;;;;;;5047926;28;20514;-55
2023/05/20 01:54:21;;;;;;;7.63;4.13;;;11.70;99.90;;;;;;5048210;28;20041;-55
2023/05/20 01:56:49;;;;;;;9.55;4.25;;;11.60;99.90;;;;;;5048432;28;20043;-55
2023/05/20 01:59:14;;;;;;;7.03;4.18;;;11.70;99.90;;;;;;5048216;28;20036;-55
2023/05/20 02:01:40;;;;;;;5.72;3.60;;;11.70;99.90;;;;;;5051463;28;20045;-54
2023/05/20 02:04:06;;;;;;;7.70;4.47;;;11.70;99.90;;;;;;5068558;28;20056;-55
2023/05/20 02:06:31;;;;;;;7.85;4.20;;;11.60;99.90;;;;;;5067615;28;20498;-54
2023/05/20 02:08:57;;;;;;;9.98;4.55;;;11.60;99.90;;;;;;5067481;28;20057;-54
2023/05/20 02:11:23;;;;;;;8.85;4.40;;;11.60;99.90;;;;;;5068423;28;20071;-55
2023/05/20 02:13:50;;;;;;;9.57;4.45;;;11.60;99.90;;;;;;5050215;28;20060;-52
2023/05/20 02:16:15;;;;;;;8.55;4.30;;;11.50;99.90;;;;;;5068045;28;20083;-54
2023/05/20 02:18:41;;;;;;;7.88;4.03;;;11.50;99.90;;;;;;5049797;28;20495;-55
2023/05/20 02:21:07;;;;;;;5.88;3.88;;;11.40;99.90;;;;;;5067056;28;20051;-55
2023/05/20 02:23:33;;;;;;;8.32;4.38;;;11.40;99.90;;;;;;5068068;28;20552;-55
2023/05/20 02:25:59;;;;;;;9.38;4.13;;;11.40;99.90;;;;;;5067736;28;20272;-55
2023/05/20 02:28:24;;;;;;;8.52;4.57;;;11.40;99.90;;;;;;5067608;28;20045;-55
2023/05/20 02:30:50;;;;;;;7.97;4.35;;;11.40;99.90;;;;;;5049227;28;20047;-55
2023/05/20 02:33:16;;;;;;;6.90;3.97;;;11.40;99.90;;;;;;5047484;28;20049;-56
2023/05/20 02:35:42;;;;;;;9.68;4.40;;;11.40;99.90;;;;;;5047244;28;20135;-54
2023/05/20 02:38:08;;;;;;;7.00;4.10;;;11.40;99.90;;;;;;5047622;28;20131;-54
2023/05/20 02:40:33;;;;;;;8.50;4.38;;;11.40;99.90;;;;;;5046828;28;20116;-55
2023/05/20 02:43:00;;;;;;;7.25;3.97;;;11.40;99.90;;;;;;5046988;28;20446;-54
2023/05/20 02:45:26;;;;;;;7.60;4.07;;;11.30;99.90;;;;;;5047328;28;20102;-55
2023/05/20 02:47:52;;;;;;;6.35;4.03;;;11.30;99.90;;;;;;5047536;28;20049;-54
2023/05/20 02:50:17;;;;;;;7.45;4.13;;;11.40;99.90;;;;;;5046981;28;20041;-54
2023/05/20 02:52:44;;;;;;;7.85;4.07;;;11.30;99.90;;;;;;5046932;28;20044;-55
2023/05/20 02:55:10;;;;;;;7.80;4.25;;;11.30;99.90;;;;;;5047328;28;20052;-55
2023/05/20 02:57:37;;;;;;;5.43;3.50;;;11.30;99.90;;;;;;5047046;28;20045;-55
2023/05/20 03:00:12;;;;;;;9.27;3.67;;;11.30;99.90;;;;;;5047198;28;20041;-55
2023/05/20 03:02:38;;;;;;;9.88;4.30;;;11.30;99.90;;;;;;5028998;28;20052;-54
2023/05/20 03:05:04;;;;;;;6.93;3.65;;;11.30;99.90;;;;;;5047399;28;20099;-54
2023/05/20 03:07:30;;;;;;;6.85;4.32;;;11.30;99.90;;;;;;5046412;28;20049;-55
2023/05/20 03:09:58;;;;;;;7.03;3.47;;;11.30;99.90;;;;;;5047193;28;20427;-55
2023/05/20 03:12:25;;;;;;;5.07;3.60;;;11.30;99.90;;;;;;5047547;28;20120;-55
2023/05/20 03:14:54;;;;;;;8.52;3.90;;;11.30;99.90;;;;;;5046789;28;20052;-55
2023/05/20 03:17:22;;;;;;;9.25;3.53;;;11.30;99.90;;;;;;5047233;28;20051;-54
2023/05/20 03:19:48;;;;;;;7.80;3.60;;;11.30;99.90;;;;;;5046957;28;20115;-54
2023/05/20 03:22:14;;;;;;;8.18;3.63;;;11.20;99.90;;;;;;5046408;28;20107;-55
2023/05/20 03:24:41;;;;;;;6.65;3.28;;;11.20;99.90;;;;;;5046697;28;20123;-54
2023/05/20 03:27:07;;;;;;;8.73;3.60;;;11.30;99.90;;;;;;5046707;28;20570;-53
2023/05/20 03:29:33;;;;;;;7.35;3.20;;;11.20;99.90;;;;;;5046581;28;20033;-54
2023/05/20 03:31:58;;;;;;;8.20;3.40;;;11.20;99.90;;;;;;5047131;28;20043;-54
2023/05/20 03:34:26;;;;;;;6.18;3.38;;;11.20;99.90;;;;;;5046901;28;20391;-54
2023/05/20 03:36:52;;;;;;;6.40;3.35;;;11.30;99.90;;;;;;5045217;28;20051;-54
2023/05/20 03:39:18;;;;;;;4.95;3.08;;;11.20;99.90;;;;;;5046192;28;20041;-56
2023/05/20 03:41:44;;;;;;;6.03;3.00;;;11.20;99.90;;;;;;5046544;28;20048;-54
2023/05/20 03:44:09;;;;;;;6.45;3.08;;;11.30;99.90;;;;;;5046235;28;20047;-54
2023/05/20 03:46:35;;;;;;;7.13;2.92;;;11.20;99.90;;;;;;5046118;28;20044;-55
2023/05/20 03:49:01;;;;;;;5.53;2.60;;;11.30;99.90;;;;;;5046217;28;20051;-54
2023/05/20 03:51:26;;;;;;;6.15;3.08;;;11.30;99.90;;;;;;5045588;28;20037;-54
2023/05/20 03:53:52;;;;;;;4.75;2.92;;;11.30;99.90;;;;;;5046092;28;20049;-53
2023/05/20 03:56:18;;;;;;;7.15;2.80;;;11.30;99.90;;;;;;5046491;28;20045;-55
2023/05/20 03:58:44;;;;;;;5.00;2.50;;;11.30;99.90;;;;;;5046149;28;20487;-54
2023/05/20 04:01:12;;;;;;;4.32;2.47;;;11.30;99.90;;;;;;5046113;28;20052;-54
2023/05/20 04:03:37;;;;;;;5.00;2.65;;;11.30;99.90;;;;;;5045728;28;20419;-54
2023/05/20 04:06:03;;;;;;;4.35;2.25;;;11.30;99.90;;;;;;5027405;28;20045;-56
2023/05/20 04:08:29;;;;;;;6.68;2.80;;;11.30;99.90;;;;;;5045614;28;20108;-55
2023/05/20 04:10:56;;;;;;;3.75;2.50;;;11.40;99.90;;;;;;5045766;28;20049;-54
2023/05/20 04:13:24;;;;;;;4.45;2.10;;;11.30;99.90;;;;;;5046287;28;20041;-55
2023/05/20 04:15:51;;;;;;;5.82;2.63;;;11.30;99.90;;;;;;5046406;28;20109;-54
2023/05/20 04:18:17;;;;;;;5.35;2.50;;;11.30;99.90;;;;;;5045786;28;20174;-55
2023/05/20 04:20:45;;;;;;;5.03;2.83;;;11.20;99.90;;;;;;5044861;28;20033;-54
2023/05/20 04:23:10;;;;;;;4.28;2.47;;;11.20;99.90;;;;;;5045679;28;20044;-55
2023/05/20 04:25:37;;;;;;;5.25;2.30;;;11.10;99.90;;;;;;5045303;28;20083;-55
2023/05/20 04:28:03;;;;;;;4.00;2.30;;;11.10;99.90;;;;;;5045410;28;20052;-53
2023/05/20 04:30:29;;;;;;;4.28;2.25;;;11.10;99.90;;;;;;5045750;28;20037;-54
2023/05/20 04:32:54;;;;;;;5.47;2.00;;;11.10;99.90;;;;;;5045432;28;20503;-55
2023/05/20 04:35:20;;;;;;;4.95;2.15;;;11.10;99.90;;;;;;5044795;28;20052;-53
2023/05/20 04:37:49;;;;;;;3.72;2.00;;;11.00;99.90;;;;;;5045530;28;20089;-54
2023/05/20 04:40:15;;;;;;;3.60;1.98;;;11.10;99.90;;;;;;5045453;28;20069;-54
2023/05/20 04:42:42;;;;;;;5.85;2.17;;;11.10;99.90;;;;;;5045083;28;20052;-54
2023/05/20 04:45:08;;;;;;;4.10;1.80;;;11.50;99.90;;;;;;5045583;28;20116;-53
2023/05/20 04:47:37;;;;;;;2.60;1.80;;;11.60;99.90;;;;;;5045403;28;20562;-53
2023/05/20 04:50:10;;;;;;;5.03;1.77;;;11.90;99.90;;;;;;5044824;28;20076;-55
2023/05/20 04:52:37;;;;;;;3.78;1.80;;;12.20;99.90;;;;;;5045154;28;20041;-53
2023/05/20 04:55:09;;;;;;;3.50;1.60;;;12.40;99.90;;;;;;5045315;28;20138;-53
2023/05/20 04:57:35;;;;;;;4.13;2.00;;;12.50;99.90;;;;;;5044994;28;20041;-54
2023/05/20 05:00:01;;;;;;;4.88;1.70;;;12.70;99.90;;;;;;5045304;28;20053;-54
2023/05/20 05:02:27;;;;;;;4.25;1.48;;;12.80;99.90;;;;;;5046519;28;20102;-54
2023/05/20 05:04:52;;;;;;;4.32;1.90;;;12.90;99.90;;;;;;5051429;28;20064;-56
2023/05/20 05:07:18;;;;;;;4.35;1.80;;;13.10;99.90;;;;;;5051749;28;20041;-54
2023/05/20 05:09:44;;;;;;;3.08;1.90;;;13.30;99.90;;;;;;5051771;28;20052;-53
2023/05/20 05:12:09;;;;;;;3.75;1.67;;;13.40;99.90;;;;;;5051953;28;20040;-54
2023/05/20 05:14:35;;;;;;;3.97;1.90;;;13.60;99.90;;;;;;5051404;28;20040;-54
2023/05/20 05:17:00;;;;;;;5.43;1.88;;;13.70;99.90;;;;;;5052040;28;20045;-54
2023/05/20 05:19:26;;;;;;;4.88;1.40;;;14.00;99.90;;;;;;5033731;28;20052;-53
2023/05/20 05:21:52;;;;;;;3.15;1.45;;;14.20;99.90;;;;;;5051131;28;20059;-52
2023/05/20 05:24:17;;;;;;;4.20;1.70;;;14.30;99.90;;;;;;5051681;28;20052;-54
2023/05/20 05:26:43;;;;;;;3.63;1.80;;;14.50;99.90;;;;;;5033808;28;20043;-53
2023/05/20 05:29:08;;;;;;;5.35;1.50;;;14.80;99.90;;;;;;5051433;28;20527;-53
2023/05/20 05:31:34;;;;;;;4.10;1.60;;;14.90;99.80;;;;;;5051434;28;20438;-53
2023/05/20 05:34:00;;;;;;;2.90;1.40;;;15.20;99.60;;;;;;5051489;28;20510;-54
2023/05/20 05:36:25;;;;;;;5.38;2.05;;;15.50;98.70;;;;;;5050899;28;20045;-54
2023/05/20 05:38:51;;;;;;;3.03;1.55;;;15.80;98.00;;;;;;5051730;28;20103;-53
2023/05/20 05:41:17;;;;;;;3.95;1.40;;;16.00;97.40;;;;;;5051493;28;20051;-55
2023/05/20 05:43:42;;;;;;;4.75;1.40;;;16.20;97.00;;;;;;5033504;28;20160;-54
2023/05/20 05:46:08;;;;;;;4.97;1.65;;;16.30;96.50;;;;;;5050958;28;20045;-53
2023/05/20 05:48:35;;;;;;;3.60;1.60;;;16.40;96.40;;;;;;5051313;28;20497;-54
2023/05/20 05:51:01;;;;;;;2.38;1.45;;;16.40;96.30;;;;;;5051069;28;20045;-55
2023/05/20 05:53:27;;;;;;;5.43;1.75;;;16.50;96.10;;;;;;5051485;28;20094;-53
2023/05/20 05:55:52;;;;;;;2.80;1.38;;;16.50;95.90;;;;;;5051289;28;20052;-54
2023/05/20 05:58:18;;;;;;;5.60;1.70;;;16.50;95.70;;;;;;5051622;28;20037;-54
2023/05/20 06:00:43;;;;;;;3.03;1.42;;;16.50;95.70;;;;;;5051362;28;20052;-55
2023/05/20 06:03:09;;;;;;;3.40;1.40;;;16.80;95.80;;;;;;5050892;28;20041;-54
2023/05/20 06:05:35;;;;;;;5.05;1.73;;;17.00;95.40;;;;;;5050307;28;20045;-54
2023/05/20 06:08:01;;;;;;;3.75;1.40;;;17.20;95.20;;;;;;5051213;28;20080;-54
2023/05/20 06:10:26;;;;;;;3.55;1.17;;;17.30;94.90;;;;;;5051308;28;20052;-52
2023/05/20 06:12:52;;;;;;;5.28;1.75;;;17.50;94.80;;;;;;5033373;28;20064;-54
2023/05/20 06:15:18;;;;;;;4.32;1.40;;;17.80;94.50;;;;;;5047471;28;20045;-54
2023/05/20 06:17:43;;;;;;;4.05;1.50;;;17.90;94.20;;;;;;5047980;28;20041;-54
2023/05/20 06:20:09;;;;;;;2.97;1.38;;;17.80;93.90;;;;;;5046992;28;20049;-53
2023/05/20 06:22:35;;;;;;;2.70;1.40;;;17.80;93.90;;;;;;5048022;28;20068;-54
2023/05/20 06:25:01;;;;;;;4.13;1.50;;;17.80;93.90;;;;;;5047811;28;20052;-53
2023/05/20 06:27:27;;;;;;;3.55;1.55;;;18.00;94.00;;;;;;5047738;28;20045;-55
2023/05/20 06:29:52;;;;;;;2.20;1.40;;;18.00;93.80;;;;;;5048297;28;20045;-55
2023/05/20 06:32:18;;;;;;;4.75;1.70;;;18.20;93.90;;;;;;5048018;28;20690;-54
2023/05/20 06:34:44;;;;;;;3.92;1.50;;;18.20;93.40;;;;;;5029572;28;20433;-54
2023/05/20 06:37:10;;;;;;;3.88;1.60;;;18.20;93.20;;;;;;5046725;28;20041;-54
2023/05/20 06:39:36;;;;;;;4.45;1.33;;;18.20;93.20;;;;;;5030005;28;20099;-54
2023/05/20 06:42:02;;;;;;;4.72;1.35;;;18.10;93.30;;;;;;5047662;28;20048;-54
2023/05/20 06:44:27;;;;;;;4.25;1.73;;;18.00;93.40;;;;;;5047592;28;20132;-53
2023/05/20 06:46:53;;;;;;;3.60;1.77;;;18.10;93.50;;;;;;5048405;28;20049;-55
2023/05/20 06:49:19;;;;;;;5.95;1.50;;;18.20;93.50;;;;;;5047635;28;20110;-55
2023/05/20 06:51:45;;;;;;;3.75;1.75;;;18.30;93.50;;;;;;5046981;28;20172;-54
2023/05/20 06:54:10;;;;;;;9.35;1.50;;;18.30;93.50;;;;;;5047061;28;20554;-53
2023/05/20 06:56:36;;;;;;;5.05;1.55;;;18.20;93.60;;;;;;5047403;28;20103;-55
2023/05/20 06:59:02;;;;;;;4.22;1.40;;;18.20;93.60;;;;;;5047252;28;20068;-54
2023/05/20 07:01:27;;;;;;;3.42;1.35;;;18.50;93.70;;;;;;5046922;28;20048;-55
2023/05/20 07:03:53;;;;;;;4.72;1.60;;;18.60;93.20;;;;;;5047089;28;20056;-54
2023/05/20 07:06:18;;;;;;;3.05;1.70;;;18.70;93.30;;;;;;5046700;28;20052;-54
2023/05/20 07:08:44;;;;;;;3.28;1.55;;;18.80;93.40;;;;;;5046549;28;20099;-54
2023/05/20 07:11:10;;;;;;;3.05;1.63;;;18.90;93.30;;;;;;5046832;28;20094;-54
2023/05/20 07:13:36;;;;;;;3.08;1.40;;;19.00;93.10;;;;;;5045611;28;20082;-54
2023/05/20 07:16:02;;;;;;;3.85;1.55;;;19.00;93.30;;;;;;5066618;28;20040;-55
2023/05/20 07:18:28;;;;;;;2.60;1.50;;;19.10;93.30;;;;;;5048957;28;20048;-54
2023/05/20 07:20:55;;;;;;;3.25;1.50;;;19.20;93.40;;;;;;5066091;28;20032;-56
2023/05/20 07:23:22;;;;;;;3.83;1.50;;;19.10;93.20;;;;;;5066996;28;20052;-55
2023/05/20 07:25:48;;;;;;;4.60;1.52;;;19.00;93.50;;;;;;5065965;28;20094;-55
2023/05/20 07:28:16;;;;;;;2.95;1.60;;;18.90;93.20;;;;;;5066468;28;20041;-55
2023/05/20 07:30:45;;;;;;;4.43;1.65;;;18.80;93.60;;;;;;5066637;28;20041;-55
2023/05/20 07:33:10;;;;;;;3.30;1.65;;;18.90;93.30;;;;;;5066190;28;20052;-55
2023/05/20 07:35:36;;;;;;;4.10;1.83;;;19.10;93.20;;;;;;5066032;28;20044;-55
2023/05/20 07:38:02;;;;;;;3.38;1.45;;;19.10;93.00;;;;;;5066558;28;20040;-57
2023/05/20 07:40:28;;;;;;;2.80;1.65;;;19.10;93.10;;;;;;5066711;28;20102;-55
2023/05/20 07:42:53;;;;;;;4.40;1.90;;;19.00;93.50;;;;;;5066264;28;20090;-55
2023/05/20 07:45:19;;;;;;;4.53;1.55;;;18.90;93.60;;;;;;5066121;28;20454;-55
2023/05/20 07:47:45;;;;;;;2.85;1.70;;;19.00;93.60;;;;;;5066548;28;20048;-55
2023/05/20 07:50:10;;;;;;;3.70;1.63;;;19.10;93.60;;;;;;5047039;28;20124;-55
2023/05/20 07:52:36;;;;;;;2.42;1.50;;;19.10;93.60;;;;;;5048394;28;20059;-54
2023/05/20 07:55:02;;;;;;;5.03;1.70;;;19.10;93.90;;;;;;5066897;28;20114;-54
2023/05/20 07:57:28;;;;;;;3.03;1.27;;;19.20;93.90;;;;;;5048606;28;20131;-54
2023/05/20 07:59:53;;;;;;;4.75;2.10;;;19.00;93.80;;;;;;5048143;28;20127;-54
2023/05/20 08:02:19;;;;;;;3.10;1.55;;;18.90;93.80;;;;;;5066263;28;20150;-55
2023/05/20 08:04:45;;;;;;;2.85;1.60;;;18.90;93.90;;;;;;5065374;28;20048;-52
2023/05/20 08:07:10;;;;;;;6.57;1.88;;;19.00;94.10;;;;;;5047558;28;20037;-54
2023/05/20 08:09:36;;;;;;;3.50;2.00;;;19.00;94.30;;;;;;5065671;28;20478;-54
2023/05/20 08:12:02;;;;;;;3.50;1.60;;;18.90;94.20;;;;;;5066167;28;20032;-55
2023/05/20 08:14:27;;;;;;;6.13;2.05;;;19.10;94.30;;;;;;5065320;28;20037;-54
2023/05/20 08:16:53;;;;;;;4.07;1.70;;;19.10;94.40;;;;;;5065829;28;20036;-54
2023/05/20 08:19:18;;;;;;;3.67;2.00;;;19.10;94.40;;;;;;5066109;28;20047;-55
2023/05/20 08:21:44;;;;;;;5.65;1.85;;;19.20;94.40;;;;;;5064920;28;20036;-54
2023/05/20 08:24:10;;;;;;;3.35;1.80;;;19.30;94.50;;;;;;5065476;28;20475;-55
2023/05/20 08:26:35;;;;;;;4.32;1.80;;;19.50;94.60;;;;;;5065743;28;20047;-56
2023/05/20 08:29:01;;;;;;;2.90;1.83;;;19.60;94.60;;;;;;5065545;28;20513;-55
2023/05/20 08:31:27;;;;;;;4.10;2.03;;;19.70;94.40;;;;;;5065450;28;20043;-54
2023/05/20 08:33:52;;;;;;;6.20;1.90;;;19.80;94.60;;;;;;5065379;28;20052;-55
2023/05/20 08:36:18;;;;;;;4.10;1.83;;;19.90;94.60;;;;;;5046680;28;20048;-56
2023/05/20 08:38:43;;;;;;;2.63;1.65;;;20.00;94.40;;;;;;5064907;28;20401;-54
2023/05/20 08:41:09;;;;;;;3.55;1.80;;;19.90;93.90;;;;;;5064769;28;20478;-54
2023/05/20 08:43:36;;;;;;;5.10;2.10;;;19.90;94.40;;;;;;5065668;28;20080;-55
2023/05/20 08:46:05;;;;;;;2.55;1.65;;;20.10;94.50;;;;;;5065784;28;20041;-54
2023/05/20 08:48:32;;;;;;;3.45;1.95;;;20.20;94.40;;;;;;5065212;28;20059;-53
2023/05/20 08:50:58;;;;;;;4.68;2.03;;;20.30;94.10;;;;;;5064751;28;20046;-54
2023/05/20 08:53:25;;;;;;;3.88;1.83;;;20.40;93.70;;;;;;5065283;28;20051;-53
2023/05/20 08:55:56;;;;;;;5.75;2.28;;;20.40;93.60;;;;;;5065173;28;20406;-53
2023/05/20 08:58:23;;;;;;;6.03;2.67;;;20.50;93.80;;;;;;5065311;28;20148;-53
2023/05/20 09:00:52;;;;;;;5.43;2.20;;;20.50;93.80;;;;;;5065479;28;20090;-55
2023/05/20 09:03:19;;;;;;;5.78;2.50;;;20.40;93.20;;;;;;5046549;28;20059;-54
2023/05/20 09:05:45;;;;;;;3.60;2.08;;;20.50;93.50;;;;;;5030275;28;20053;-55
2023/05/20 09:08:11;;;;;;;4.38;2.45;;;20.50;93.70;;;;;;5065116;28;20048;-56
2023/05/20 09:10:38;;;;;;;5.30;2.05;;;20.70;93.50;;;;;;5064853;28;20146;-58
2023/05/20 09:13:05;;;;;;;6.45;2.60;;;20.80;93.50;;;;;;5047729;28;20442;-55
2023/05/20 09:15:31;;;;;;;4.68;2.60;;;20.90;93.40;;;;;;5066261;28;20041;-57
2023/05/20 09:18:02;;;;;;;4.25;2.28;;;20.90;93.30;;;;;;5066294;28;20044;-56
2023/05/20 09:20:29;;;;;;;10.60;2.90;;;21.10;93.20;;;;;;5065564;28;20067;-56
2023/05/20 09:22:59;;;;;;;4.65;2.30;;;21.20;93.20;;;;;;5063950;28;20052;-55
2023/05/20 09:25:25;;;;;;;4.78;2.35;;;21.10;91.90;;;;;;5063333;28;20048;-55
2023/05/20 09:27:50;;;;;;;4.72;1.95;;;21.10;92.80;;;;;;5063206;28;20047;-54
2023/05/20 09:30:20;;;;;;;4.25;2.22;;;21.20;92.50;;;;;;5045899;28;20052;-55
2023/05/20 09:32:52;;;;;;;4.35;2.20;;;21.20;92.20;;;;;;5063156;28;20067;-54
2023/05/20 09:35:18;;;;;;;8.25;2.28;;;21.10;92.00;;;;;;5062486;28;20336;-55
2023/05/20 09:37:46;;;;;;;6.70;2.92;;;21.20;92.20;;;;;;5063313;28;20114;-55
2023/05/20 09:40:14;;;;;;;4.13;2.15;;;21.30;92.90;;;;;;5064957;28;20128;-55
2023/05/20 09:42:40;;;;;;;6.07;2.47;;;21.40;92.60;;;;;;5047087;28;20052;-56
2023/05/20 09:45:08;;;;;;;5.65;2.53;;;21.40;92.70;;;;;;5065090;28;20072;-56
2023/05/20 09:47:37;;;;;;;5.95;1.90;;;21.60;92.80;;;;;;5046789;28;20048;-55
2023/05/20 09:50:05;;;;;;;9.48;2.40;;;21.50;92.80;;;;;;5066408;28;20498;-54
2023/05/20 09:52:31;;;;;;;5.47;2.15;;;21.60;93.20;;;;;;5068546;28;20063;-55
2023/05/20 09:54:58;;;;;;;4.85;2.30;;;21.80;92.80;;;;;;5068485;28;20052;-55
2023/05/20 09:57:24;;;;;;;5.82;2.20;;;21.80;92.90;;;;;;5067782;28;20048;-54
2023/05/20 09:59:51;;;;;;;5.55;2.65;;;21.80;92.40;;;;;;5068544;28;20482;-54
2023/05/20 10:02:18;;;;;;;5.28;2.28;;;21.70;92.00;;;;;;5068274;28;20045;-55
2023/05/20 10:04:48;;;;;;;6.78;2.20;;;21.70;92.50;;;;;;5067559;28;20052;-54
2023/05/20 10:07:38;;;;;;;5.05;2.17;;;21.70;91.10;;;;;;5068417;28;20127;-56
2023/05/20 10:10:21;;;;;;;6.60;2.22;;;21.70;91.00;;;;;;5067649;28;20114;-56
2023/05/20 10:13:24;;;;;;;5.15;2.40;;;21.50;91.70;;;;;;5068460;28;20044;-56
2023/05/20 10:16:18;;;;;;;4.90;2.10;;;21.30;91.40;;;;;;5067975;28;20174;-56
2023/05/20 10:18:54;;;;;;;4.13;1.80;;;21.20;91.40;;;;;;5067973;28;20051;-56
2023/05/20 10:21:24;;;;;;;8.63;2.10;;;21.20;91.00;;;;;;5067521;28;20358;-57
2023/05/20 10:23:51;;;;;;;6.82;2.22;;;20.90;90.50;;;;;;5067460;28;20511;-56
2023/05/20 10:26:17;;;;;;;4.55;1.95;;;20.50;91.30;;;;;;5067960;28;20080;-56
2023/05/20 10:28:44;;;;;;;7.63;2.55;;;20.30;91.40;;;;;;5068007;28;20203;-58
2023/05/20 10:31:17;;;;;;;4.38;2.20;;;20.60;91.80;;;;;;5067757;28;20076;-58
2023/05/20 10:33:45;;;;;;;3.88;1.95;;;20.90;91.40;;;;;;5068311;28;20387;-58
2023/05/20 10:36:29;;;;;;;4.53;1.83;;;21.20;91.50;;;;;;5067230;28;20074;-56
2023/05/20 10:38:57;;;;;;;5.03;1.70;;;21.40;90.40;;;;;;5068959;28;20115;-54
2023/05/20 10:41:27;;;;;;;4.50;2.00;;;21.50;90.40;;;;;;5068327;28;20454;-54
2023/05/20 10:44:05;;;;;;;2.90;1.60;;;21.50;90.50;;;;;;5067747;28;20036;-54
2023/05/20 10:46:32;;;;;;;3.10;1.80;;;21.80;89.80;;;;;;5067295;28;20055;-54
2023/05/20 10:49:00;;;;;;;3.58;1.80;;;21.80;90.50;;;;;;5067298;28;20048;-53
2023/05/20 10:51:28;;;;;;;4.43;1.75;;;21.80;90.50;;;;;;5066411;28;20046;-56
2023/05/20 10:53:54;;;;;;;2.85;1.90;;;21.70;90.40;;;;;;5067505;28;20391;-54
2023/05/20 10:56:25;;;;;;;4.88;1.88;;;21.20;90.50;;;;;;5049534;28;20498;-56
2023/05/20 10:58:52;;;;;;;6.47;2.17;;;21.10;90.70;;;;;;5066715;28;20436;-56
2023/05/20 11:01:18;;;;;;;4.47;1.77;;;21.30;90.50;;;;;;5048656;28;20079;-55
2023/05/20 11:03:47;;;;;;;4.55;1.73;;;21.60;90.40;;;;;;5067278;28;20131;-57
2023/05/20 11:06:14;;;;;;;4.32;1.85;;;21.60;89.20;;;;;;5066461;28;20041;-54
2023/05/20 11:08:40;;;;;;;6.85;2.40;;;21.40;88.70;;;;;;5066996;28;20059;-54
2023/05/20 11:11:06;;;;;;;4.28;1.70;;;21.10;89.90;;;;;;5066907;28;20053;-54
2023/05/20 11:13:32;;;;;;;4.28;2.00;;;21.20;90.50;;;;;;5066536;28;20059;-54
2023/05/20 11:15:59;;;;;;;5.90;2.42;;;21.30;90.30;;;;;;5067069;28;20033;-52
2023/05/20 11:18:29;;;;;;;4.75;2.03;;;21.50;90.10;;;;;;5066994;28;20040;-52
2023/05/20 11:20:55;;;;;;;5.80;2.20;;;21.30;88.90;;;;;;5065574;28;20429;-53
2023/05/20 11:23:22;;;;;;;4.97;1.88;;;21.20;89.60;;;;;;5067306;28;20043;-51
2023/05/20 11:25:51;;;;;;;5.13;2.10;;;21.40;90.40;;;;;;5067113;28;20055;-54
2023/05/20 11:28:20;;;;;;;5.78;1.83;;;21.40;90.00;;;;;;5048516;28;20109;-54
2023/05/20 11:30:47;;;;;;;3.97;2.20;;;21.20;90.10;;;;;;5066688;28;20063;-54
2023/05/20 11:33:14;;;;;;;3.75;2.25;;;21.20;90.20;;;;;;5067108;28;20395;-53
2023/05/20 11:35:51;;;;;;;3.65;2.03;;;21.10;90.30;;;;;;5065621;28;20069;-52
2023/05/20 11:38:18;;;;;;;4.22;2.10;;;21.30;89.30;;;;;;5066588;28;20290;-53
2023/05/20 11:40:51;;;;;;;6.18;2.10;;;21.50;90.40;;;;;;5066589;28;20114;-54
2023/05/20 11:43:18;;;;;;;4.10;1.90;;;21.50;90.20;;;;;;5066240;28;20410;-54
2023/05/20 11:45:45;;;;;;;4.30;1.90;;;21.30;90.30;;;;;;5066644;28;20045;-50
2023/05/20 11:48:14;;;;;;;4.72;2.15;;;21.20;90.40;;;;;;5066721;28;20336;-51
2023/05/20 11:50:41;;;;;;;5.13;2.00;;;21.10;90.50;;;;;;5065375;28;20065;-51
2023/05/20 11:53:09;;;;;;;4.82;1.90;;;21.20;90.30;;;;;;5048120;28;20040;-51
2023/05/20 11:55:45;;;;;;;3.88;1.70;;;21.30;90.40;;;;;;5066494;28;20059;-59
2023/05/20 11:58:14;;;;;;;3.53;2.08;;;21.30;90.00;;;;;;5065706;28;20045;-49
2023/05/20 12:00:39;;;;;;;4.38;2.10;;;21.20;90.80;;;;;;5066057;28;20189;-52
2023/05/20 12:03:05;;;;;;;6.53;2.13;;;21.20;90.70;;;;;;5065989;28;20091;-51
2023/05/20 12:05:30;;;;;;;4.07;1.83;;;21.30;91.20;;;;;;5064656;28;20507;-52
2023/05/20 12:07:56;;;;;;;2.95;1.73;;;21.50;91.10;;;;;;5065944;28;20183;-52
2023/05/20 12:10:22;;;;;;;3.33;1.70;;;21.60;90.90;;;;;;5065549;28;20048;-52
2023/05/20 12:12:47;;;;;;;3.25;1.90;;;21.80;90.90;;;;;;5064877;28;20476;-53
2023/05/20 12:15:13;;;;;;;3.85;2.08;;;21.80;90.60;;;;;;5066166;28;20402;-52
2023/05/20 12:17:47;;;;;;;3.72;2.17;;;22.00;90.40;;;;;;5065635;28;20351;-49
2023/05/20 12:20:17;;;;;;;;;;;22.00;89.70;;;;;;5065223;28;20469;-49
2023/05/20 12:22:44;;;;;;;5.10;2.00;;;22.00;89.90;;;;;;5065380;28;20044;-52
2023/05/20 12:25:15;;;;;;;3.50;2.00;;;21.90;90.20;;;;;;5047583;28;20106;-50
2023/05/20 12:27:41;;;;;;;6.28;2.30;;;21.60;89.50;;;;;;5065078;28;20043;-50
2023/05/20 12:30:08;;;;;;;4.70;2.28;;;21.40;90.40;;;;;;5065794;28;20062;-50
2023/05/20 12:32:35;;;;;;;6.40;2.53;;;21.30;90.70;;;;;;5047557;28;20503;-50
2023/05/20 12:35:01;;;;;;;8.02;2.42;;;21.30;90.80;;;;;;5064381;28;20510;-52
2023/05/20 12:37:27;;;;;;;3.85;2.20;;;21.40;90.70;;;;;;5065720;28;20054;-50
2023/05/20 12:39:52;;;;;;;5.45;2.38;;;21.50;91.20;;;;;;5047699;28;20068;-52
2023/05/20 12:42:18;;;;;;;9.02;2.92;;;21.80;91.50;;;;;;5065797;28;20079;-52
2023/05/20 12:44:44;;;;;;;5.18;2.10;;;22.00;91.30;;;;;;5065200;28;20479;-50